Time;durP1;ratioP1;P1;durP2;ratioP2;P2;SDS_P1;SDS_P2;PMS_P1;PMS_P2;Temp;Humidity;BMP_temperature;BMP_pressure;BME280_temperature;BME280_humidity;BME280_pressure;Samples;Min_cycle;Max_cycle;Signal;HPM_P1;HPM_P2
2022/06/10 00:00:23;;;;;;;7.80;7.10;;;;;;;18.79;82.26;100009.98;105986;1276;24283;-74
2022/06/10 00:02:51;;;;;;;9.30;7.50;;;;;;;18.88;82.11;100014.35;105975;1274;22486;-75
2022/06/10 00:05:22;;;;;;;8.30;7.60;;;;;;;18.92;81.85;100019.49;106455;1274;25292;-76
2022/06/10 00:07:51;;;;;;;10.00;7.70;;;;;;;18.96;81.79;100031.61;106384;1269;25318;-75
2022/06/10 00:10:21;;;;;;;7.80;7.00;;;;;;;18.98;81.77;100025.27;106715;1271;22593;-75
2022/06/10 00:12:49;;;;;;;8.10;7.10;;;;;;;18.97;81.46;100018.70;106587;1271;24217;-73
2022/06/10 00:15:17;;;;;;;9.90;6.80;;;;;;;18.99;81.48;100023.44;106425;1270;24331;-73
2022/06/10 00:17:45;;;;;;;8.40;7.60;;;;;;;18.99;81.45;100027.89;106445;1271;22516;-73
2022/06/10 00:20:15;;;;;;;8.20;7.40;;;;;;;19.05;81.62;100029.06;106527;1271;22561;-72
2022/06/10 00:22:42;;;;;;;8.80;8.00;;;;;;;19.12;81.43;100031.25;106399;1271;22525;-74
2022/06/10 00:25:10;;;;;;;9.30;7.70;;;;;;;19.17;81.37;100034.73;106476;1271;22528;-76
2022/06/10 00:27:37;;;;;;;7.50;6.80;;;;;;;19.17;81.00;100038.66;106437;1271;22550;-77
2022/06/10 00:30:06;;;;;;;6.90;6.30;;;;;;;19.15;81.10;100040.70;106361;1270;22537;-75
2022/06/10 00:32:34;;;;;;;8.20;7.40;;;;;;;19.13;80.93;100037.04;106416;1268;25379;-75
2022/06/10 00:35:01;;;;;;;8.50;7.60;;;;;;;19.20;81.00;100047.77;106665;1271;24379;-72
2022/06/10 00:37:27;;;;;;;10.70;7.50;;;;;;;19.20;80.93;100050.98;106728;1271;22528;-75
2022/06/10 00:39:54;;;;;;;10.00;7.50;;;;;;;19.20;80.80;100051.54;106234;1271;24772;-76
2022/06/10 00:42:21;;;;;;;7.60;6.80;;;;;;;19.24;80.84;100053.66;106127;1271;22558;-74
2022/06/10 00:44:52;;;;;;;9.20;7.00;;;;;;;19.23;80.61;100056.35;106389;1271;22618;-74
2022/06/10 00:47:30;;;;;;;10.10;7.40;;;;;;;19.26;80.63;100059.62;106413;1271;22556;-72
2022/06/10 00:50:01;;;;;;;8.80;7.90;;;;;;;19.26;80.55;100067.29;106448;1271;24264;-72
2022/06/10 00:52:35;;;;;;;8.80;7.10;;;;;;;19.26;80.47;100078.52;106903;1271;24298;-72
2022/06/10 00:55:06;;;;;;;9.00;7.90;;;;;;;19.26;80.45;100071.60;107022;1270;22533;-73
2022/06/10 00:57:38;;;;;;;8.30;7.50;;;;;;;19.28;80.34;100072.55;106344;1271;25306;-72
2022/06/10 01:00:08;;;;;;;8.90;7.50;;;;;;;19.29;80.34;100074.08;105775;1277;24788;-71
2022/06/10 01:02:36;;;;;;;8.50;7.80;;;;;;;19.30;80.24;100073.86;106031;1276;22544;-73
2022/06/10 01:05:09;;;;;;;10.00;8.60;;;;;;;19.31;80.20;100074.17;105798;1277;25488;-72
2022/06/10 01:07:40;;;;;;;8.90;8.10;;;;;;;19.24;80.09;100074.71;105951;1277;24799;-71
2022/06/10 01:10:12;;;;;;;9.00;7.70;;;;;;;19.22;80.34;100073.05;105666;1277;25486;-73
2022/06/10 01:13:01;;;;;;;8.30;7.50;;;;;;;19.22;80.34;100073.21;105668;1277;22681;-72
2022/06/10 01:15:43;;;;;;;9.90;8.30;;;;;;;19.22;80.29;100073.20;105664;1276;23007;-73
2022/06/10 01:18:35;;;;;;;10.10;7.70;;;;;;;19.21;80.25;100078.60;105881;1271;23956;-73
2022/06/10 01:21:07;;;;;;;9.90;8.80;;;;;;;19.20;80.32;100076.70;106131;1271;22525;-72
2022/06/10 01:24:00;;;;;;;9.90;9.00;;;;;;;19.20;80.36;100073.84;106194;1271;24361;-73
2022/06/10 01:30:20;;;;;;;9.70;8.50;;;;;;;19.16;80.27;100080.81;106349;1271;25532;-80
2022/06/10 01:32:59;;;;;;;9.40;8.60;;;;;;;19.16;80.31;100084.77;106436;1271;24351;-74
2022/06/10 01:35:48;;;;;;;9.70;8.70;;;;;;;19.11;80.07;100085.17;106416;1271;22708;-76
2022/06/10 01:38:37;;;;;;;9.90;9.10;;;;;;;19.02;80.50;100083.43;106318;1271;23939;-77
2022/06/10 01:41:07;;;;;;;9.00;8.10;;;;;;;19.02;80.62;100085.40;106463;1271;25512;-76
2022/06/10 01:43:57;;;;;;;9.30;8.40;;;;;;;19.03;80.60;100085.35;106277;1271;24230;-73
2022/06/10 01:46:37;;;;;;;9.10;8.20;;;;;;;19.07;80.55;100090.34;106416;1271;25341;-77
2022/06/10 01:49:26;;;;;;;11.90;8.40;;;;;;;19.10;80.49;100095.05;106103;1271;22596;-76
2022/06/10 01:52:01;;;;;;;12.00;8.70;;;;;;;19.09;80.39;100100.43;106025;1277;22626;-78
2022/06/10 01:54:50;;;;;;;13.20;9.50;;;;;;;19.07;80.37;100099.98;105819;1277;24296;-76
2022/06/10 01:57:30;;;;;;;10.10;9.10;;;;;;;19.09;80.31;100100.78;105838;1277;25367;-80
2022/06/10 02:00:12;;;;;;;10.40;8.00;;;;;;;19.10;80.27;100100.23;105934;1277;24243;-81
2022/06/10 02:02:48;;;;;;;9.90;8.80;;;;;;;19.11;80.22;100103.40;105966;1274;25507;-80
2022/06/10 02:05:19;;;;;;;10.00;9.10;;;;;;;19.09;80.15;100108.79;105999;1275;23950;-75
2022/06/10 02:08:07;;;;;;;10.10;9.10;;;;;;;19.09;80.22;100111.15;106006;1274;22531;-75
2022/06/10 02:10:40;;;;;;;9.70;8.80;;;;;;;19.04;80.08;100117.07;106252;1272;25260;-75
2022/06/10 02:13:13;;;;;;;11.70;8.30;;;;;;;18.98;80.19;100122.36;106526;1270;25480;-76
2022/06/10 02:15:52;;;;;;;9.00;8.20;;;;;;;18.95;80.31;100126.27;106415;1271;22528;-77
2022/06/10 02:18:48;;;;;;;9.70;8.70;;;;;;;18.91;80.38;100126.96;106418;1271;22541;-78
2022/06/10 02:21:22;;;;;;;9.50;8.70;;;;;;;18.90;80.53;100124.01;106398;1271;22673;-74
2022/06/10 02:24:02;;;;;;;10.10;9.30;;;;;;;18.92;80.78;100127.11;106132;1271;23251;-74
2022/06/10 02:26:33;;;;;;;10.70;9.80;;;;;;;18.97;80.70;100126.48;106286;1271;22680;-73
2022/06/10 02:29:06;;;;;;;10.80;8.90;;;;;;;18.99;80.65;100122.48;106935;1271;22678;-73
2022/06/10 02:31:47;;;;;;;9.90;8.90;;;;;;;19.01;80.62;100123.64;106213;1271;22559;-72
2022/06/10 02:34:15;;;;;;;9.90;9.00;;;;;;;19.01;80.56;100120.60;106269;1271;22688;-74
2022/06/10 02:36:41;;;;;;;9.70;8.80;;;;;;;19.02;80.64;100121.99;106518;1271;22525;-72
2022/06/10 02:39:35;;;;;;;10.10;9.10;;;;;;;19.01;80.51;100120.40;106201;1271;22537;-73
2022/06/10 02:42:36;;;;;;;9.00;8.20;;;;;;;18.94;80.36;100122.73;106365;1271;25652;-71
2022/06/10 02:45:40;;;;;;;8.90;8.00;;;;;;;18.92;80.64;100121.95;106502;1269;22559;-72
2022/06/10 02:48:44;;;;;;;10.50;9.60;;;;;;;18.88;80.61;100125.36;106463;1271;24290;-73
2022/06/10 02:51:13;;;;;;;10.10;9.30;;;;;;;18.84;80.87;100125.87;106294;1271;25352;-75
2022/06/10 02:53:40;;;;;;;9.20;7.90;;;;;;;18.84;80.96;100133.56;105923;1276;22477;-71
2022/06/10 02:56:19;;;;;;;9.50;8.50;;;;;;;18.83;80.86;100143.77;105853;1276;24450;-72
2022/06/10 03:01:47;;;;;;;10.00;9.00;;;;;;;18.89;81.20;100148.31;105295;1282;22535;-73
2022/06/10 03:04:39;;;;;;;11.90;9.20;;;;;;;18.95;81.02;100150.52;105351;1282;24251;-72
2022/06/10 03:07:37;;;;;;;10.60;9.20;;;;;;;18.89;80.59;100155.23;105093;1282;24252;-73
2022/06/10 03:10:25;;;;;;;10.20;8.30;;;;;;;18.79;80.41;100154.45;105223;1282;24144;-72
2022/06/10 03:13:09;;;;;;;9.00;8.10;;;;;;;18.73;80.35;100155.30;105761;1278;24807;-72
2022/06/10 03:15:38;;;;;;;9.50;8.60;;;;;;;18.63;80.09;100160.73;105160;1284;22547;-73
2022/06/10 03:18:48;;;;;;;9.90;8.90;;;;;;;18.54;80.28;100163.11;105608;1277;24278;-73
2022/06/10 03:21:28;;;;;;;10.90;9.80;;;;;;;18.48;80.49;100170.14;105836;1276;22529;-71
2022/06/10 03:24:34;;;;;;;9.50;8.40;;;;;;;18.40;80.19;100179.79;106009;1276;22554;-74
2022/06/10 03:27:18;;;;;;;8.90;8.10;;;;;;;18.28;80.33;100183.86;105732;1277;22685;-74
2022/06/10 03:29:52;;;;;;;9.60;8.80;;;;;;;18.22;80.65;100188.09;105936;1277;22674;-73
2022/06/10 03:32:31;;;;;;;9.60;8.70;;;;;;;18.19;80.62;100201.39;105719;1277;22491;-75
2022/06/10 03:35:06;;;;;;;9.00;8.10;;;;;;;18.12;80.67;100205.23;106356;1271;22617;-74
2022/06/10 03:37:37;;;;;;;10.50;8.40;;;;;;;18.09;80.90;100211.25;106245;1271;23018;-76
2022/06/10 03:40:04;;;;;;;9.30;8.30;;;;;;;18.07;80.97;100210.09;106262;1271;22673;-72
2022/06/10 03:42:31;;;;;;;12.60;9.10;;;;;;;18.11;81.09;100217.21;106294;1271;22536;-73
2022/06/10 03:45:00;;;;;;;10.00;9.10;;;;;;;18.14;81.12;100224.58;106129;1271;22611;-76
2022/06/10 03:47:31;;;;;;;10.00;8.60;;;;;;;18.13;80.90;100225.14;107171;1271;22471;-77
2022/06/10 03:50:10;;;;;;;8.40;7.60;;;;;;;18.09;81.04;100221.77;106233;1271;22699;-73
2022/06/10 03:52:39;;;;;;;10.80;7.90;;;;;;;18.17;81.25;100229.61;106363;1271;22908;-73
2022/06/10 03:55:08;;;;;;;8.30;7.60;;;;;;;18.20;80.91;100227.02;106880;1271;22679;-73
2022/06/10 03:57:36;;;;;;;9.30;8.50;;;;;;;18.19;80.90;100232.73;106823;1271;22624;-74
2022/06/10 04:00:05;;;;;;;8.70;7.90;;;;;;;18.24;81.07;100232.17;106378;1271;26557;-71
2022/06/10 04:02:38;;;;;;;9.30;8.30;;;;;;;18.32;81.15;100236.62;106236;1271;22556;-73
2022/06/10 04:05:08;;;;;;;9.50;7.80;;;;;;;18.35;80.86;100235.98;106365;1271;25248;-73
2022/06/10 04:07:35;;;;;;;14.00;8.20;;;;;;;18.39;80.87;100240.29;106332;1271;25274;-75
2022/06/10 04:10:03;;;;;;;9.30;8.40;;;;;;;18.41;80.75;100244.46;106197;1271;25667;-73
2022/06/10 04:12:30;;;;;;;9.50;8.60;;;;;;;18.46;80.69;100243.70;106349;1271;22690;-73
2022/06/10 04:14:57;;;;;;;9.20;7.80;;;;;;;18.47;80.65;100246.69;106255;1271;26501;-70
2022/06/10 04:17:25;;;;;;;8.20;7.50;;;;;;;18.48;80.45;100244.53;106331;1271;25283;-73
2022/06/10 04:19:52;;;;;;;9.30;7.60;;;;;;;18.50;80.55;100250.12;106543;1271;24004;-72
2022/06/10 04:22:19;;;;;;;10.20;8.90;;;;;;;18.54;80.49;100249.06;106522;1271;23982;-71
2022/06/10 04:24:46;;;;;;;9.80;8.90;;;;;;;18.61;80.75;100245.36;106626;1271;23046;-74
2022/06/10 04:27:12;;;;;;;12.90;8.90;;;;;;;18.67;80.59;100247.94;106475;1271;25399;-72
2022/06/10 04:29:39;;;;;;;9.30;8.00;;;;;;;18.74;80.51;100250.50;106326;1271;25589;-72
2022/06/10 04:32:07;;;;;;;10.10;8.10;;;;;;;18.76;80.28;100251.45;106570;1271;24284;-71
2022/06/10 04:34:34;;;;;;;8.90;8.10;;;;;;;18.78;80.28;100251.73;107455;1271;24312;-72
2022/06/10 04:37:00;;;;;;;10.80;9.60;;;;;;;18.77;80.30;100256.22;105735;1279;24506;-76
2022/06/10 04:39:27;;;;;;;14.90;9.30;;;;;;;18.81;80.40;100256.23;105718;1280;22782;-81
2022/06/10 04:41:54;;;;;;;9.30;8.40;;;;;;;18.86;80.34;100254.61;105858;1278;25310;-74
2022/06/10 04:44:23;;;;;;;9.50;8.50;;;;;;;18.90;80.32;100256.38;106548;1277;25265;-74
2022/06/10 04:46:49;;;;;;;10.40;9.30;;;;;;;18.92;80.15;100259.11;105842;1277;22627;-76
2022/06/10 04:49:18;;;;;;;15.60;9.70;;;;;;;18.97;80.21;100262.30;105970;1276;22750;-76
2022/06/10 04:51:44;;;;;;;11.20;9.20;;;;;;;19.03;80.19;100264.17;105953;1276;22570;-78
2022/06/10 04:54:11;;;;;;;11.10;8.20;;;;;;;19.02;79.77;100272.04;105776;1277;22542;-75
2022/06/10 04:56:39;;;;;;;9.00;7.80;;;;;;;18.99;79.70;100273.62;106391;1271;23182;-71
2022/06/10 04:59:06;;;;;;;9.50;8.20;;;;;;;18.94;79.56;100265.48;106483;1271;22540;-75
2022/06/10 05:01:33;;;;;;;9.40;8.50;;;;;;;18.99;79.54;100271.66;106234;1271;22522;-73
2022/06/10 05:04:00;;;;;;;10.10;9.00;;;;;;;18.97;79.34;100272.83;106257;1272;22581;-74
2022/06/10 05:06:27;;;;;;;8.30;7.50;;;;;;;18.99;79.19;100282.52;106490;1271;22512;-76
2022/06/10 05:08:54;;;;;;;9.40;8.00;;;;;;;18.95;78.97;100280.92;106573;1271;22561;-79
2022/06/10 05:11:21;;;;;;;7.80;7.10;;;;;;;18.95;79.24;100279.66;106218;1272;23187;-81
2022/06/10 05:13:48;;;;;;;9.50;7.30;;;;;;;18.98;79.14;100280.48;106209;1271;24228;-77
2022/06/10 05:16:22;;;;;;;10.50;8.00;;;;;;;18.98;79.18;100283.48;106459;1271;25463;-77
2022/06/10 05:18:49;;;;;;;9.40;7.40;;;;;;;19.00;79.11;100285.69;106546;1271;22545;-78
2022/06/10 05:21:16;;;;;;;9.20;7.90;;;;;;;19.01;79.12;100291.35;106494;1271;22828;-77
2022/06/10 05:23:45;;;;;;;9.20;8.30;;;;;;;19.03;78.98;100290.37;106620;1271;24263;-76
2022/06/10 05:26:13;;;;;;;7.80;7.00;;;;;;;19.04;78.88;100294.61;106280;1271;22654;-76
2022/06/10 05:28:41;;;;;;;9.40;7.80;;;;;;;19.02;78.82;100296.30;106414;1271;24356;-75
2022/06/10 05:31:08;;;;;;;11.70;8.60;;;;;;;19.03;78.89;100300.38;106042;1271;22734;-75
2022/06/10 05:36:21;;;;;;;8.40;6.60;;;;;;;19.09;78.67;100305.85;106391;1271;24516;-77
2022/06/10 05:38:49;;;;;;;8.50;7.20;;;;;;;19.11;78.41;100305.27;106340;1271;22884;-76
2022/06/10 05:44:02;;;;;;;11.40;7.80;;;;;;;19.21;78.26;100311.19;106555;1271;23256;-84
2022/06/10 05:46:29;;;;;;;7.50;6.90;;;;;;;19.24;77.96;100314.10;106393;1272;22617;-75
2022/06/10 05:48:56;;;;;;;6.90;6.30;;;;;;;19.27;77.87;100317.35;106155;1271;25509;-76
2022/06/10 05:51:23;;;;;;;7.70;7.00;;;;;;;19.32;77.79;100319.80;106233;1270;22614;-76
2022/06/10 05:53:50;;;;;;;7.40;6.70;;;;;;;19.37;77.51;100326.00;106232;1271;24302;-78
2022/06/10 05:56:17;;;;;;;7.60;6.90;;;;;;;19.40;77.27;100326.73;106242;1271;22544;-77
2022/06/10 05:58:44;;;;;;;7.80;7.00;;;;;;;19.44;77.25;100326.92;106262;1273;24236;-78
2022/06/10 06:01:11;;;;;;;7.10;6.50;;;;;;;19.48;76.84;100333.88;106218;1271;22727;-77
2022/06/10 06:03:37;;;;;;;7.90;6.50;;;;;;;19.47;76.55;100332.30;105874;1277;24372;-78
2022/06/10 06:06:05;;;;;;;7.90;6.90;;;;;;;19.46;76.73;100331.65;106065;1277;22559;-80
2022/06/10 06:08:32;;;;;;;7.90;6.50;;;;;;;19.58;76.82;100338.56;106179;1277;25405;-77
2022/06/10 06:10:58;;;;;;;8.60;7.50;;;;;;;19.67;76.77;100335.13;106290;1276;22550;-81
2022/06/10 06:13:26;;;;;;;7.40;6.40;;;;;;;19.76;76.58;100334.33;106067;1277;24902;-78
2022/06/10 06:15:54;;;;;;;5.90;5.40;;;;;;;19.85;76.41;100336.55;106420;1277;25329;-77
2022/06/10 06:18:21;;;;;;;12.20;5.80;;;;;;;19.93;76.12;100339.23;106078;1276;22580;-78
2022/06/10 06:20:48;;;;;;;8.30;6.00;;;;;;;20.01;75.82;100339.38;105970;1277;25493;-77
2022/06/10 06:23:15;;;;;;;5.50;4.90;;;;;;;20.09;75.49;100343.68;106463;1271;24384;-77
2022/06/10 06:25:44;;;;;;;6.60;6.00;;;;;;;20.12;75.23;100345.86;106162;1271;22550;-75
2022/06/10 06:28:11;;;;;;;8.10;5.90;;;;;;;20.15;74.91;100353.03;106434;1271;22476;-76
2022/06/10 06:30:44;;;;;;;6.30;5.30;;;;;;;20.19;74.97;100356.95;106249;1271;24170;-77
2022/06/10 06:33:11;;;;;;;10.20;6.10;;;;;;;20.24;74.92;100360.25;106253;1271;25247;-76
2022/06/10 06:35:40;;;;;;;7.30;6.30;;;;;;;20.27;74.79;100364.57;106323;1271;26513;-77
2022/06/10 06:38:07;;;;;;;6.50;6.00;;;;;;;20.32;74.87;100364.54;105877;1279;22547;-77
2022/06/10 06:40:34;;;;;;;7.60;5.80;;;;;;;20.34;74.68;100364.40;105847;1276;22552;-77
2022/06/10 06:43:03;;;;;;;5.60;5.00;;;;;;;20.36;74.57;100365.41;105960;1276;23236;-76
2022/06/10 06:45:31;;;;;;;6.00;5.40;;;;;;;20.40;74.74;100369.30;106017;1278;26563;-75
2022/06/10 06:48:08;;;;;;;5.80;5.20;;;;;;;20.46;74.59;100369.36;106025;1278;26517;-77
2022/06/10 06:50:41;;;;;;;6.20;5.70;;;;;;;20.50;74.62;100373.30;105847;1277;22563;-76
2022/06/10 06:53:08;;;;;;;5.60;5.10;;;;;;;20.57;73.87;100379.18;106020;1275;25266;-75
2022/06/10 06:55:37;;;;;;;6.60;5.30;;;;;;;20.59;73.58;100374.95;106136;1271;22534;-76
2022/06/10 06:58:07;;;;;;;5.30;4.90;;;;;;;20.67;73.50;100376.50;106266;1271;22534;-76
2022/06/10 07:00:34;;;;;;;8.30;4.60;;;;;;;20.74;73.44;100377.79;106330;1271;22482;-76
2022/06/10 07:03:04;;;;;;;6.00;4.30;;;;;;;20.80;72.74;100382.12;106398;1271;25287;-77
2022/06/10 07:05:33;;;;;;;4.70;4.10;;;;;;;20.78;71.82;100382.77;106344;1271;22543;-78
2022/06/10 07:08:00;;;;;;;4.20;3.90;;;;;;;20.77;71.40;100385.70;106418;1271;25302;-77
2022/06/10 07:10:27;;;;;;;5.90;4.10;;;;;;;20.82;71.75;100385.77;106265;1271;24395;-78
2022/06/10 07:12:54;;;;;;;4.50;3.80;;;;;;;20.91;71.34;100391.21;105844;1277;22555;-77
2022/06/10 07:15:22;;;;;;;5.10;4.60;;;;;;;21.02;71.45;100391.04;105475;1282;22550;-77
2022/06/10 07:17:49;;;;;;;5.10;4.60;;;;;;;21.13;71.14;100393.52;105693;1281;24345;-74
2022/06/10 07:20:26;;;;;;;5.80;4.20;;;;;;;21.20;70.68;100390.63;105947;1281;25299;-77
2022/06/10 07:22:53;;;;;;;4.90;3.90;;;;;;;21.32;70.53;100391.97;105906;1281;23325;-77
2022/06/10 07:25:22;;;;;;;4.60;4.20;;;;;;;21.44;70.57;100394.34;105567;1280;24233;-77
2022/06/10 07:27:52;;;;;;;7.00;4.50;;;;;;;21.56;69.92;100391.74;105589;1281;22702;-76
2022/06/10 07:30:21;;;;;;;5.20;4.70;;;;;;;21.62;69.66;100391.20;105669;1278;25376;-77
2022/06/10 07:32:48;;;;;;;6.70;5.00;;;;;;;21.70;69.55;100394.36;106089;1274;22874;-75
2022/06/10 07:35:18;;;;;;;15.40;9.60;;;;;;;21.78;69.28;100395.23;106629;1268;25244;-80
2022/06/10 07:37:47;;;;;;;10.10;7.50;;;;;;;21.87;69.29;100398.31;106348;1274;22605;-80
2022/06/10 07:43:27;;;;;;;16.80;7.40;;;;;;;21.99;68.12;100403.38;106623;1271;24222;-77
2022/06/10 07:45:54;;;;;;;15.50;8.00;;;;;;;22.06;67.27;100403.16;106431;1271;26612;-79
2022/06/10 07:48:22;;;;;;;9.30;5.60;;;;;;;22.16;67.42;100399.17;106478;1271;24249;-76
2022/06/10 07:50:49;;;;;;;12.60;5.80;;;;;;;22.36;67.40;100406.65;106888;1271;22532;-77
2022/06/10 07:53:18;;;;;;;4.50;3.60;;;;;;;22.52;66.73;100406.06;106595;1271;22558;-80
2022/06/10 07:55:46;;;;;;;5.20;3.90;;;;;;;22.63;66.14;100410.48;106887;1271;24248;-77
2022/06/10 07:58:16;;;;;;;6.10;3.80;;;;;;;22.71;65.98;100412.35;107049;1271;26509;-76
2022/06/10 08:00:44;;;;;;;4.90;3.60;;;;;;;22.80;65.44;100411.09;106678;1271;25881;-77
2022/06/10 08:03:12;;;;;;;4.70;3.20;;;;;;;22.85;64.64;100409.73;106648;1271;25260;-77
2022/06/10 08:05:41;;;;;;;4.10;3.10;;;;;;;22.91;64.02;100411.90;106367;1271;26947;-77
2022/06/10 08:08:14;;;;;;;4.50;3.10;;;;;;;22.93;64.33;100414.30;106251;1276;22539;-77
2022/06/10 08:10:41;;;;;;;4.00;2.80;;;;;;;22.98;63.43;100415.00;106042;1278;25527;-77
2022/06/10 08:13:09;;;;;;;3.20;2.90;;;;;;;23.00;62.61;100420.86;106235;1276;232205;-79
2022/06/10 08:15:38;;;;;;;3.80;2.90;;;;;;;22.99;61.68;100423.95;106365;1277;26723;-76
2022/06/10 08:18:05;;;;;;;3.30;2.70;;;;;;;22.97;61.42;100422.26;106090;1278;25968;-78
2022/06/10 08:23:26;;;;;;;3.20;2.70;;;;;;;23.15;61.02;100428.77;106048;1277;22564;-75
2022/06/10 08:25:55;;;;;;;2.70;2.50;;;;;;;23.28;61.59;100429.59;106054;1272;22768;-77
2022/06/10 08:28:23;;;;;;;3.70;2.70;;;;;;;23.39;60.87;100430.88;106443;1271;24295;-74
2022/06/10 08:30:50;;;;;;;3.20;2.10;;;;;;;23.40;60.47;100432.06;106221;1271;24270;-78
2022/06/10 08:33:17;;;;;;;2.40;2.20;;;;;;;23.29;59.38;100434.20;106298;1272;22550;-79
2022/06/10 08:35:45;;;;;;;3.00;2.30;;;;;;;23.26;59.02;100435.26;106320;1270;24290;-77
2022/06/10 08:38:13;;;;;;;2.60;2.10;;;;;;;23.23;58.89;100435.41;106494;1271;25260;-77
2022/06/10 08:40:40;;;;;;;3.10;2.60;;;;;;;23.32;58.95;100436.36;106326;1272;22533;-77
2022/06/10 08:43:34;;;;;;;3.90;2.80;;;;;;;23.41;58.68;100436.56;106408;1271;24072;-76
2022/06/10 08:46:33;;;;;;;3.80;2.50;;;;;;;23.43;58.81;100442.49;106368;1271;22735;-77
2022/06/10 08:49:31;;;;;;;3.60;2.80;;;;;;;23.60;59.06;100438.74;106313;1271;23833;-78
2022/06/10 08:52:10;;;;;;;3.20;2.60;;;;;;;23.81;58.72;100448.23;106372;1271;22575;-78
2022/06/10 08:54:55;;;;;;;3.20;2.80;;;;;;;23.91;58.34;100447.38;106383;1271;25267;-78
2022/06/10 08:57:39;;;;;;;3.10;2.90;;;;;;;24.01;58.17;100452.54;106430;1271;24327;-76
2022/06/10 09:00:31;;;;;;;3.30;3.00;;;;;;;24.08;58.58;100449.60;106436;1271;22545;-76
2022/06/10 09:03:20;;;;;;;3.40;3.10;;;;;;;24.26;58.09;100449.17;107391;1271;22720;-76
2022/06/10 09:05:54;;;;;;;3.60;3.40;;;;;;;24.30;57.57;100451.59;106486;1270;22564;-74
2022/06/10 09:08:28;;;;;;;3.40;3.00;;;;;;;24.15;58.28;100458.14;106552;1270;22553;-76
2022/06/10 09:11:14;;;;;;;3.70;3.20;;;;;;;24.05;58.11;100466.48;106310;1270;25455;-76
2022/06/10 09:14:05;;;;;;;;;;;;;;;23.89;57.42;100470.72;105777;1277;22558;-79
2022/06/10 09:16:55;;;;;;;2.90;2.50;;;;;;;23.81;58.00;100471.06;105977;1276;22633;-75
2022/06/10 09:20:01;;;;;;;2.70;2.40;;;;;;;23.76;57.72;100478.01;105968;1277;22578;-75
2022/06/10 09:22:49;;;;;;;2.80;2.40;;;;;;;23.81;57.67;100481.16;105828;1277;23204;-74
2022/06/10 09:25:42;;;;;;;5.70;2.80;;;;;;;23.97;57.27;100480.83;106117;1276;22641;-75
2022/06/10 09:28:09;;;;;;;3.50;2.20;;;;;;;24.17;57.38;100476.02;105924;1277;22678;-76
2022/06/10 09:30:46;;;;;;;2.80;2.60;;;;;;;24.34;56.96;100480.65;105973;1277;25335;-76
2022/06/10 09:33:51;;;;;;;2.40;2.20;;;;;;;24.42;56.31;100481.02;106614;1270;22580;-81
2022/06/10 09:36:51;;;;;;;2.70;2.50;;;;;;;24.41;56.31;100483.46;106014;1278;25541;-77
2022/06/10 09:43:09;;;;;;;4.20;2.80;;;;;;;24.34;55.56;100494.34;105491;1283;25327;-79
2022/06/10 09:45:45;;;;;;;3.00;2.70;;;;;;;24.41;55.93;100496.42;105504;1283;22775;-76
2022/06/10 09:48:43;;;;;;;3.20;2.90;;;;;;;24.36;56.06;100498.36;105439;1284;22869;-76
2022/06/10 09:51:49;;;;;;;3.00;2.70;;;;;;;24.52;56.58;100497.67;105442;1283;25265;-74
2022/06/10 09:54:27;;;;;;;2.90;2.60;;;;;;;24.63;56.30;100497.50;105428;1282;26722;-75
2022/06/10 09:57:18;;;;;;;2.80;2.60;;;;;;;24.53;56.17;100497.39;105440;1283;22565;-76
2022/06/10 10:00:04;;;;;;;3.90;3.60;;;;;;;24.53;56.19;100500.86;105623;1282;22600;-75
2022/06/10 10:03:02;;;;;;;3.70;3.30;;;;;;;24.61;55.87;100505.58;105779;1283;22602;-76
2022/06/10 10:05:44;;;;;;;3.50;3.20;;;;;;;24.72;55.56;100503.04;105508;1283;25477;-76
2022/06/10 10:08:25;;;;;;;3.40;3.10;;;;;;;24.93;55.88;100502.21;105511;1283;24218;-75
2022/06/10 10:10:56;;;;;;;3.00;2.80;;;;;;;25.15;55.06;100502.90;105419;1283;22567;-73
2022/06/10 10:13:58;;;;;;;2.80;2.60;;;;;;;25.18;55.27;100503.55;105702;1270;25405;-72
2022/06/10 10:16:54;;;;;;;2.40;2.20;;;;;;;25.22;55.43;100509.96;106460;1271;22540;-75
2022/06/10 10:19:34;;;;;;;3.20;2.40;;;;;;;25.36;54.66;100507.92;106986;1270;25376;-74
2022/06/10 10:22:20;;;;;;;2.70;2.40;;;;;;;25.47;53.58;100509.34;106919;1270;22564;-76
2022/06/10 10:24:47;;;;;;;4.70;2.90;;;;;;;25.47;53.49;100511.09;106254;1271;24217;-80
2022/06/10 10:27:23;;;;;;;2.80;2.60;;;;;;;25.64;54.27;100506.35;106228;1270;25277;-73
2022/06/10 10:29:57;;;;;;;3.20;2.70;;;;;;;25.89;52.67;100510.88;106332;1271;24268;-76
2022/06/10 10:32:33;;;;;;;2.80;2.10;;;;;;;25.80;52.46;100505.95;105681;1274;22761;-75
2022/06/10 10:35:17;;;;;;;3.20;2.50;;;;;;;25.80;52.22;100507.05;106019;1277;23204;-74
2022/06/10 10:38:01;;;;;;;2.60;2.40;;;;;;;25.92;52.24;100511.42;105724;1276;22906;-75
2022/06/10 10:40:41;;;;;;;2.50;2.30;;;;;;;25.97;51.92;100506.55;105798;1276;24306;-76
2022/06/10 10:43:19;;;;;;;3.10;2.80;;;;;;;25.74;52.31;100508.33;105778;1276;22578;-76
2022/06/10 10:45:55;;;;;;;4.80;2.90;;;;;;;25.52;52.69;100515.42;105636;1278;25365;-74
2022/06/10 10:48:27;;;;;;;2.50;2.30;;;;;;;25.52;53.24;100510.95;106338;1277;24221;-72
2022/06/10 10:51:03;;;;;;;4.00;2.70;;;;;;;25.55;52.90;100513.63;106826;1270;22577;-76
2022/06/10 10:53:44;;;;;;;2.80;2.40;;;;;;;25.66;52.45;100517.05;106657;1270;22609;-74
2022/06/10 10:56:14;;;;;;;2.30;2.00;;;;;;;25.67;52.58;100521.13;106295;1270;25353;-76
2022/06/10 10:58:54;;;;;;;2.90;2.60;;;;;;;25.84;52.68;100523.16;106299;1270;24098;-76
2022/06/10 11:01:43;;;;;;;2.70;2.50;;;;;;;26.06;52.14;100528.83;106858;1271;22566;-75
2022/06/10 11:04:25;;;;;;;2.60;2.40;;;;;;;25.85;51.40;100531.02;106374;1271;23859;-75
2022/06/10 11:07:01;;;;;;;3.50;2.50;;;;;;;25.45;51.92;100534.68;106688;1271;25249;-77
2022/06/10 11:10:04;;;;;;;2.60;2.40;;;;;;;25.39;52.52;100535.09;106284;1270;22560;-72
2022/06/10 11:12:33;;;;;;;2.80;2.60;;;;;;;25.53;52.71;100531.44;106357;1270;25249;-77
2022/06/10 11:15:06;;;;;;;3.00;2.50;;;;;;;25.78;52.90;100527.59;106372;1270;26480;-84
2022/06/10 11:17:36;;;;;;;2.50;2.30;;;;;;;25.91;52.96;100530.58;106226;1270;22550;-77
2022/06/10 11:20:22;;;;;;;2.70;2.30;;;;;;;25.84;52.71;100533.30;106245;1271;24851;-77
2022/06/10 11:22:49;;;;;;;2.70;2.50;;;;;;;25.61;53.07;100535.80;106275;1270;25322;-78
2022/06/10 11:25:24;;;;;;;2.60;2.10;;;;;;;25.48;53.57;100536.50;106204;1271;24699;-77
2022/06/10 11:27:50;;;;;;;2.10;2.00;;;;;;;25.44;53.56;100536.03;106154;1270;22574;-75
2022/06/10 11:30:20;;;;;;;2.50;2.20;;;;;;;25.44;53.54;100540.02;106243;1270;25541;-74
2022/06/10 11:32:47;;;;;;;2.40;2.10;;;;;;;25.51;53.49;100538.81;105903;1276;25779;-76
2022/06/10 11:35:26;;;;;;;1.80;1.70;;;;;;;25.47;53.37;100547.31;105990;1276;22877;-75
2022/06/10 11:37:58;;;;;;;3.10;2.00;;;;;;;25.47;53.22;100543.04;106025;1276;23195;-77
2022/06/10 11:40:48;;;;;;;2.70;2.40;;;;;;;25.39;53.61;100541.55;106000;1281;22694;-76
2022/06/10 11:43:22;;;;;;;3.30;2.10;;;;;;;25.49;53.47;100543.08;105770;1281;22502;-80
2022/06/10 11:46:05;;;;;;;2.10;1.90;;;;;;;25.48;53.81;100538.27;105517;1286;25601;-75
2022/06/10 11:48:40;;;;;;;2.40;2.20;;;;;;;25.37;53.55;100535.95;105125;1285;22565;-75
2022/06/10 11:51:10;;;;;;;2.00;1.90;;;;;;;25.13;53.56;100537.94;105105;1282;22578;-76
2022/06/10 11:53:56;;;;;;;2.30;2.10;;;;;;;24.99;54.00;100543.40;105523;1281;23092;-78
2022/06/10 11:59:43;;;;;;;2.40;2.20;;;;;;;25.70;53.34;100533.33;105667;1278;22570;-76
2022/06/10 12:02:30;;;;;;;2.60;2.00;;;;;;;26.17;52.90;100533.81;105749;1276;22854;-76
2022/06/10 12:05:20;;;;;;;2.60;1.80;;;;;;;26.32;51.87;100536.33;106114;1271;25305;-74
2022/06/10 12:08:00;;;;;;;3.30;2.30;;;;;;;26.13;52.32;100540.60;106618;1271;24227;-76
2022/06/10 12:10:40;;;;;;;2.10;2.00;;;;;;;26.04;52.10;100543.25;106165;1271;23792;-78
2022/06/10 12:13:11;;;;;;;2.80;2.00;;;;;;;25.90;52.11;100544.59;106211;1271;23021;-75
2022/06/10 12:15:48;;;;;;;3.70;2.30;;;;;;;26.06;52.02;100547.76;106281;1271;25254;-78